sensor_id;sensor_type;location;lat;lon;timestamp;pressure;altitude;pressure_sealevel;temperature;humidity
70411;BME280;57832;46.038;11.398;2023-02-18T00:01:15;98088.59;;;0.11;100.00
70411;BME280;57832;46.038;11.398;2023-02-18T00:03:41;98084.03;;;0.05;100.00
70411;BME280;57832;46.038;11.398;2023-02-18T00:06:19;98082.88;;;0.18;100.00
70411;BME280;57832;46.038;11.398;2023-02-18T00:08:45;98082.91;;;0.08;100.00
70411;BME280;57832;46.038;11.398;2023-02-18T00:11:12;98075.19;;;0.08;100.00
70411;BME280;57832;46.038;11.398;2023-02-18T00:13:38;98070.53;;;0.11;100.00
70411;BME280;57832;46.038;11.398;2023-02-18T00:16:05;98076.75;;;0.01;100.00
70411;BME280;57832;46.038;11.398;2023-02-18T00:18:31;98076.75;;;0.01;100.00
70411;BME280;57832;46.038;11.398;2023-02-18T00:20:56;98073.09;;;-0.07;100.00
70411;BME280;57832;46.038;11.398;2023-02-18T00:23:22;98075.69;;;-0.07;100.00
70411;BME280;57832;46.038;11.398;2023-02-18T00:25:48;98077.91;;;-0.12;100.00
70411;BME280;57832;46.038;11.398;2023-02-18T00:28:14;98068.63;;;-0.05;100.00
70411;BME280;57832;46.038;11.398;2023-02-18T00:30:40;98070.78;;;0.00;100.00
70411;BME280;57832;46.038;11.398;2023-02-18T00:33:06;98070.41;;;-0.05;100.00
70411;BME280;57832;46.038;11.398;2023-02-18T00:35:32;98074.50;;;-0.12;100.00
70411;BME280;57832;46.038;11.398;2023-02-18T00:37:57;98064.09;;;-0.21;100.00
70411;BME280;57832;46.038;11.398;2023-02-18T00:40:23;98070.25;;;-0.04;100.00
70411;BME280;57832;46.038;11.398;2023-02-18T00:42:48;98071.13;;;-0.13;100.00
70411;BME280;57832;46.038;11.398;2023-02-18T00:45:14;98059.03;;;-0.12;100.00
70411;BME280;57832;46.038;11.398;2023-02-18T00:47:40;98055.56;;;-0.03;100.00
70411;BME280;57832;46.038;11.398;2023-02-18T00:50:07;98038.91;;;-0.27;100.00
70411;BME280;57832;46.038;11.398;2023-02-18T00:52:33;98035.81;;;-0.30;100.00
70411;BME280;57832;46.038;11.398;2023-02-18T00:54:58;98031.25;;;-0.64;100.00
70411;BME280;57832;46.038;11.398;2023-02-18T00:57:24;98034.28;;;-0.79;100.00
70411;BME280;57832;46.038;11.398;2023-02-18T00:59:49;98037.50;;;-0.67;100.00
70411;BME280;57832;46.038;11.398;2023-02-18T01:02:15;98035.94;;;-0.50;100.00
70411;BME280;57832;46.038;11.398;2023-02-18T01:04:40;98034.69;;;-0.46;100.00
70411;BME280;57832;46.038;11.398;2023-02-18T01:07:06;98032.09;;;-0.46;100.00
70411;BME280;57832;46.038;11.398;2023-02-18T01:09:31;98029.53;;;-0.46;100.00
70411;BME280;57832;46.038;11.398;2023-02-18T01:11:57;98032.38;;;-0.21;100.00
70411;BME280;57832;46.038;11.398;2023-02-18T01:14:22;98024.03;;;-0.33;100.00
70411;BME280;57832;46.038;11.398;2023-02-18T01:16:48;98023.19;;;-0.34;100.00
70411;BME280;57832;46.038;11.398;2023-02-18T01:19:13;98035.44;;;-0.36;100.00
70411;BME280;57832;46.038;11.398;2023-02-18T01:21:39;98041.00;;;-0.40;100.00
70411;BME280;57832;46.038;11.398;2023-02-18T01:24:05;98031.47;;;-0.30;100.00
70411;BME280;57832;46.038;11.398;2023-02-18T01:26:31;98030.78;;;-0.50;100.00
70411;BME280;57832;46.038;11.398;2023-02-18T01:28:56;98031.91;;;-0.35;100.00
70411;BME280;57832;46.038;11.398;2023-02-18T01:31:22;98027.47;;;-0.24;100.00
70411;BME280;57832;46.038;11.398;2023-02-18T01:33:47;98022.41;;;-0.62;100.00
70411;BME280;57832;46.038;11.398;2023-02-18T01:36:13;98025.78;;;-0.61;100.00
70411;BME280;57832;46.038;11.398;2023-02-18T01:38:38;98028.88;;;-0.48;100.00
70411;BME280;57832;46.038;11.398;2023-02-18T01:41:04;98024.13;;;-0.71;100.00
70411;BME280;57832;46.038;11.398;2023-02-18T01:43:31;98027.25;;;-0.77;100.00
70411;BME280;57832;46.038;11.398;2023-02-18T01:48:54;98019.28;;;-0.38;100.00
70411;BME280;57832;46.038;11.398;2023-02-18T01:56:34;98019.53;;;-0.31;100.00
70411;BME280;57832;46.038;11.398;2023-02-18T01:59:02;98020.69;;;-0.43;100.00
70411;BME280;57832;46.038;11.398;2023-02-18T02:01:31;98019.50;;;-0.49;100.00
70411;BME280;57832;46.038;11.398;2023-02-18T02:03:57;98015.16;;;-0.48;100.00
70411;BME280;57832;46.038;11.398;2023-02-18T02:06:24;98013.41;;;-0.48;100.00
70411;BME280;57832;46.038;11.398;2023-02-18T02:08:54;98012.66;;;-0.58;100.00
70411;BME280;57832;46.038;11.398;2023-02-18T02:11:25;98015.50;;;-0.61;100.00
70411;BME280;57832;46.038;11.398;2023-02-18T02:22:39;98016.13;;;-1.15;100.00
70411;BME280;57832;46.038;11.398;2023-02-18T02:25:28;98012.72;;;-1.06;100.00
70411;BME280;57832;46.038;11.398;2023-02-18T02:33:14;98003.13;;;-0.76;100.00
70411;BME280;57832;46.038;11.398;2023-02-18T02:38:18;98006.66;;;-0.59;100.00
70411;BME280;57832;46.038;11.398;2023-02-18T02:43:51;97996.00;;;-0.64;100.00
70411;BME280;57832;46.038;11.398;2023-02-18T02:46:47;97988.38;;;-0.83;100.00
70411;BME280;57832;46.038;11.398;2023-02-18T02:49:23;97991.47;;;-0.80;100.00
70411;BME280;57832;46.038;11.398;2023-02-18T02:52:16;97986.59;;;-0.83;100.00
70411;BME280;57832;46.038;11.398;2023-02-18T02:54:45;97993.03;;;-0.97;100.00
70411;BME280;57832;46.038;11.398;2023-02-18T02:59:40;97987.88;;;-0.97;100.00
70411;BME280;57832;46.038;11.398;2023-02-18T03:05:20;97978.97;;;-1.03;100.00
70411;BME280;57832;46.038;11.398;2023-02-18T03:13:17;97972.81;;;-0.92;100.00
70411;BME280;57832;46.038;11.398;2023-02-18T03:16:03;97982.97;;;-0.62;100.00
70411;BME280;57832;46.038;11.398;2023-02-18T03:21:18;97987.81;;;-1.15;100.00
70411;BME280;57832;46.038;11.398;2023-02-18T03:23:55;98000.28;;;-1.20;100.00
70411;BME280;57832;46.038;11.398;2023-02-18T03:26:23;97992.31;;;-1.17;100.00
70411;BME280;57832;46.038;11.398;2023-02-18T03:28:52;97995.38;;;-1.04;100.00
70411;BME280;57832;46.038;11.398;2023-02-18T03:31:21;98005.31;;;-0.81;100.00
70411;BME280;57832;46.038;11.398;2023-02-18T03:34:02;97993.06;;;-1.35;100.00
70411;BME280;57832;46.038;11.398;2023-02-18T03:36:31;97995.88;;;-1.28;100.00
70411;BME280;57832;46.038;11.398;2023-02-18T03:39:02;98002.59;;;-1.17;100.00
70411;BME280;57832;46.038;11.398;2023-02-18T03:41:29;98000.00;;;-1.07;100.00
70411;BME280;57832;46.038;11.398;2023-02-18T03:43:59;97995.38;;;-1.04;100.00
70411;BME280;57832;46.038;11.398;2023-02-18T03:46:28;97990.81;;;-1.20;100.00
70411;BME280;57832;46.038;11.398;2023-02-18T03:48:55;97995.72;;;-1.26;100.00
70411;BME280;57832;46.038;11.398;2023-02-18T03:51:21;97988.41;;;-1.21;100.00
70411;BME280;57832;46.038;11.398;2023-02-18T03:53:47;97989.00;;;-1.47;100.00
70411;BME280;57832;46.038;11.398;2023-02-18T03:56:14;97980.34;;;-1.46;100.00
70411;BME280;57832;46.038;11.398;2023-02-18T03:58:39;97989.97;;;-1.10;100.00
70411;BME280;57832;46.038;11.398;2023-02-18T04:01:05;97978.59;;;-1.08;100.00
70411;BME280;57832;46.038;11.398;2023-02-18T04:03:31;97981.31;;;-1.09;100.00
70411;BME280;57832;46.038;11.398;2023-02-18T04:05:57;97988.44;;;-0.93;100.00
70411;BME280;57832;46.038;11.398;2023-02-18T04:08:23;97984.19;;;-1.22;100.00
70411;BME280;57832;46.038;11.398;2023-02-18T04:10:48;97990.06;;;-1.02;100.00
70411;BME280;57832;46.038;11.398;2023-02-18T04:13:14;97983.75;;;-1.18;100.00
70411;BME280;57832;46.038;11.398;2023-02-18T04:15:40;97990.19;;;-1.31;100.00
70411;BME280;57832;46.038;11.398;2023-02-18T04:18:05;97985.69;;;-1.29;100.00
70411;BME280;57832;46.038;11.398;2023-02-18T04:20:31;97994.66;;;-1.33;100.00
70411;BME280;57832;46.038;11.398;2023-02-18T04:22:56;97996.03;;;-1.02;100.00
70411;BME280;57832;46.038;11.398;2023-02-18T04:25:22;97991.41;;;-0.98;100.00
70411;BME280;57832;46.038;11.398;2023-02-18T04:27:47;97990.22;;;-1.04;100.00
70411;BME280;57832;46.038;11.398;2023-02-18T04:30:13;97994.59;;;-1.14;100.00
70411;BME280;57832;46.038;11.398;2023-02-18T04:32:39;97981.28;;;-1.37;100.00
70411;BME280;57832;46.038;11.398;2023-02-18T04:35:04;97988.69;;;-1.34;100.00
70411;BME280;57832;46.038;11.398;2023-02-18T04:37:30;97986.38;;;-1.27;100.00
70411;BME280;57832;46.038;11.398;2023-02-18T04:39:56;97986.38;;;-1.27;100.00
70411;BME280;57832;46.038;11.398;2023-02-18T04:42:21;97988.25;;;-1.29;100.00
70411;BME280;57832;46.038;11.398;2023-02-18T04:44:47;97995.28;;;-1.12;100.00
70411;BME280;57832;46.038;11.398;2023-02-18T04:47:13;97992.47;;;-1.19;100.00
70411;BME280;57832;46.038;11.398;2023-02-18T04:49:38;97992.31;;;-1.17;100.00
70411;BME280;57832;46.038;11.398;2023-02-18T04:52:04;97979.44;;;-1.27;100.00
70411;BME280;57832;46.038;11.398;2023-02-18T04:54:30;97989.06;;;-1.19;100.00
70411;BME280;57832;46.038;11.398;2023-02-18T04:56:55;97980.69;;;-1.21;100.00
70411;BME280;57832;46.038;11.398;2023-02-18T04:59:21;97977.91;;;-1.47;100.00
70411;BME280;57832;46.038;11.398;2023-02-18T05:01:47;97980.53;;;-1.29;100.00
70411;BME280;57832;46.038;11.398;2023-02-18T05:04:13;97978.00;;;-1.39;100.00
70411;BME280;57832;46.038;11.398;2023-02-18T05:06:39;97979.59;;;-1.28;100.00
70411;BME280;57832;46.038;11.398;2023-02-18T05:09:07;97981.13;;;-1.36;100.00
70411;BME280;57832;46.038;11.398;2023-02-18T05:11:32;97982.97;;;-1.18;100.00
70411;BME280;57832;46.038;11.398;2023-02-18T05:13:58;97981.63;;;-1.22;100.00
70411;BME280;57832;46.038;11.398;2023-02-18T05:16:23;97979.84;;;-1.22;100.00
70411;BME280;57832;46.038;11.398;2023-02-18T05:18:49;97975.59;;;-1.41;100.00
70411;BME280;57832;46.038;11.398;2023-02-18T05:21:14;97979.09;;;-1.32;100.00
70411;BME280;57832;46.038;11.398;2023-02-18T05:23:40;97976.00;;;-1.45;100.00
70411;BME280;57832;46.038;11.398;2023-02-18T05:26:05;97975.88;;;-1.44;100.00
70411;BME280;57832;46.038;11.398;2023-02-18T05:28:31;97968.41;;;-1.47;100.00
70411;BME280;57832;46.038;11.398;2023-02-18T05:30:57;97970.88;;;-1.55;100.00
70411;BME280;57832;46.038;11.398;2023-02-18T05:33:23;97976.63;;;-1.33;100.00
70411;BME280;57832;46.038;11.398;2023-02-18T05:35:48;97990.34;;;-1.43;100.00
70411;BME280;57832;46.038;11.398;2023-02-18T05:38:14;97982.66;;;-1.53;100.00
70411;BME280;57832;46.038;11.398;2023-02-18T05:40:39;97982.91;;;-1.46;100.00
70411;BME280;57832;46.038;11.398;2023-02-18T05:43:05;97984.94;;;-1.40;100.00
70411;BME280;57832;46.038;11.398;2023-02-18T05:45:30;97990.03;;;-1.30;100.00
70411;BME280;57832;46.038;11.398;2023-02-18T05:47:56;97983.34;;;-1.50;100.00
70411;BME280;57832;46.038;11.398;2023-02-18T05:50:22;97978.19;;;-1.60;100.00
70411;BME280;57832;46.038;11.398;2023-02-18T05:52:47;97985.22;;;-1.53;100.00
70411;BME280;57832;46.038;11.398;2023-02-18T05:55:13;97987.13;;;-1.55;100.00
70411;BME280;57832;46.038;11.398;2023-02-18T05:57:39;97984.53;;;-1.55;100.00
70411;BME280;57832;46.038;11.398;2023-02-18T06:00:05;97983.78;;;-1.75;100.00
70411;BME280;57832;46.038;11.398;2023-02-18T06:02:33;97987.56;;;-1.69;100.00
70411;BME280;57832;46.038;11.398;2023-02-18T06:04:59;97977.09;;;-1.58;100.00
70411;BME280;57832;46.038;11.398;2023-02-18T06:07:24;97988.44;;;-1.41;100.00
70411;BME280;57832;46.038;11.398;2023-02-18T06:09:50;97991.28;;;-1.34;100.00
70411;BME280;57832;46.038;11.398;2023-02-18T06:12:15;97993.41;;;-1.29;100.00
70411;BME280;57832;46.038;11.398;2023-02-18T06:14:41;97994.53;;;-1.42;100.00
70411;BME280;57832;46.038;11.398;2023-02-18T06:17:11;97995.66;;;-1.54;100.00
70411;BME280;57832;46.038;11.398;2023-02-18T06:19:37;97993.19;;;-1.46;100.00
70411;BME280;57832;46.038;11.398;2023-02-18T06:22:02;97993.47;;;-1.39;100.00
70411;BME280;57832;46.038;11.398;2023-02-18T06:24:28;97997.91;;;-1.31;100.00
70411;BME280;57832;46.038;11.398;2023-02-18T06:26:54;97990.72;;;-1.28;100.00
70411;BME280;57832;46.038;11.398;2023-02-18T06:29:19;97991.56;;;-1.37;100.00
70411;BME280;57832;46.038;11.398;2023-02-18T06:31:45;97989.78;;;-1.37;100.00
70411;BME280;57832;46.038;11.398;2023-02-18T06:34:10;97992.50;;;-1.38;100.00
70411;BME280;57832;46.038;11.398;2023-02-18T06:36:36;97989.75;;;-1.27;100.00
70411;BME280;57832;46.038;11.398;2023-02-18T06:39:03;97988.69;;;-1.34;100.00
70411;BME280;57832;46.038;11.398;2023-02-18T06:41:29;97989.84;;;-1.09;100.00
70411;BME280;57832;46.038;11.398;2023-02-18T06:43:55;97990.78;;;-1.10;100.00
70411;BME280;57832;46.038;11.398;2023-02-18T06:46:21;97997.38;;;-0.97;100.00
70411;BME280;57832;46.038;11.398;2023-02-18T06:48:46;97996.41;;;-0.96;100.00
70411;BME280;57832;46.038;11.398;2023-02-18T06:51:12;97997.44;;;-0.79;100.00
70411;BME280;57832;46.038;11.398;2023-02-18T06:53:38;97998.63;;;-0.74;100.00
70411;BME280;57832;46.038;11.398;2023-02-18T06:56:04;98009.19;;;-1.05;100.00
70411;BME280;57832;46.038;11.398;2023-02-18T06:58:30;98006.88;;;-0.70;100.00
70411;BME280;57832;46.038;11.398;2023-02-18T07:00:55;98010.53;;;-0.73;100.00
70411;BME280;57832;46.038;11.398;2023-02-18T07:03:21;98011.41;;;-0.54;100.00
70411;BME280;57832;46.038;11.398;2023-02-18T07:05:46;98016.56;;;-0.54;100.00
70411;BME280;57832;46.038;11.398;2023-02-18T07:08:12;98019.53;;;-0.59;100.00
70411;BME280;57832;46.038;11.398;2023-02-18T07:10:38;98019.31;;;-0.65;100.00
70411;BME280;57832;46.038;11.398;2023-02-18T07:13:03;98020.13;;;-0.65;100.00
70411;BME280;57832;46.038;11.398;2023-02-18T07:15:29;98012.91;;;-0.61;100.00
70411;BME280;57832;46.038;11.398;2023-02-18T07:17:55;98024.44;;;-0.56;100.00
70411;BME280;57832;46.038;11.398;2023-02-18T07:20:21;98029.84;;;-0.59;100.00
70411;BME280;57832;46.038;11.398;2023-02-18T07:22:47;98027.41;;;-0.88;100.00
70411;BME280;57832;46.038;11.398;2023-02-18T07:25:13;98023.72;;;-0.76;100.00
70411;BME280;57832;46.038;11.398;2023-02-18T07:27:39;98030.53;;;-0.57;100.00
70411;BME280;57832;46.038;11.398;2023-02-18T07:30:05;98044.50;;;-0.31;100.00
70411;BME280;57832;46.038;11.398;2023-02-18T07:32:30;98047.84;;;-0.21;100.00
70411;BME280;57832;46.038;11.398;2023-02-18T07:34:56;98047.91;;;-0.13;100.00
70411;BME280;57832;46.038;11.398;2023-02-18T07:37:22;98045.50;;;-0.14;100.00
70411;BME280;57832;46.038;11.398;2023-02-18T07:39:47;98042.06;;;0.21;100.00
70411;BME280;57832;46.038;11.398;2023-02-18T07:42:13;98043.78;;;-0.24;100.00
70411;BME280;57832;46.038;11.398;2023-02-18T07:44:39;98047.09;;;-0.87;100.00
70411;BME280;57832;46.038;11.398;2023-02-18T07:47:07;98046.06;;;-0.66;100.00
70411;BME280;57832;46.038;11.398;2023-02-18T07:49:33;98049.16;;;-0.17;100.00
70411;BME280;57832;46.038;11.398;2023-02-18T07:52:00;98042.59;;;0.25;100.00
70411;BME280;57832;46.038;11.398;2023-02-18T07:54:26;98037.38;;;-0.02;100.00
70411;BME280;57832;46.038;11.398;2023-02-18T07:56:52;98030.75;;;0.14;100.00
70411;BME280;57832;46.038;11.398;2023-02-18T07:59:19;98026.38;;;0.14;100.00
70411;BME280;57832;46.038;11.398;2023-02-18T08:01:45;98028.34;;;0.65;100.00
70411;BME280;57832;46.038;11.398;2023-02-18T08:04:11;98024.81;;;0.66;100.00
70411;BME280;57832;46.038;11.398;2023-02-18T08:06:43;98018.19;;;0.90;100.00
70411;BME280;57832;46.038;11.398;2023-02-18T08:09:10;98016.56;;;0.89;100.00
70411;BME280;57832;46.038;11.398;2023-02-18T08:11:36;98010.81;;;1.46;100.00
70411;BME280;57832;46.038;11.398;2023-02-18T08:14:02;97996.00;;;1.81;100.00
70411;BME280;57832;46.038;11.398;2023-02-18T08:16:28;97993.59;;;1.88;100.00
70411;BME280;57832;46.038;11.398;2023-02-18T08:18:54;97992.63;;;1.89;100.00
70411;BME280;57832;46.038;11.398;2023-02-18T08:21:21;97983.91;;;1.98;100.00
70411;BME280;57832;46.038;11.398;2023-02-18T08:23:48;97981.81;;;2.10;100.00
70411;BME280;57832;46.038;11.398;2023-02-18T08:26:14;97983.38;;;2.44;100.00
70411;BME280;57832;46.038;11.398;2023-02-18T08:28:39;97977.84;;;2.63;100.00
70411;BME280;57832;46.038;11.398;2023-02-18T08:31:05;97966.50;;;2.73;100.00
70411;BME280;57832;46.038;11.398;2023-02-18T08:33:31;97961.56;;;2.94;100.00
70411;BME280;57832;46.038;11.398;2023-02-18T08:35:57;97959.00;;;3.26;100.00
70411;BME280;57832;46.038;11.398;2023-02-18T08:38:23;97959.25;;;3.08;100.00
70411;BME280;57832;46.038;11.398;2023-02-18T08:40:49;97956.06;;;2.89;100.00
70411;BME280;57832;46.038;11.398;2023-02-18T08:43:15;97962.69;;;3.31;100.00
70411;BME280;57832;46.038;11.398;2023-02-18T08:45:42;97957.13;;;3.43;100.00
70411;BME280;57832;46.038;11.398;2023-02-18T08:48:09;97956.53;;;3.64;100.00
70411;BME280;57832;46.038;11.398;2023-02-18T08:50:35;97949.31;;;3.97;100.00
70411;BME280;57832;46.038;11.398;2023-02-18T08:53:01;97947.94;;;3.87;100.00
70411;BME280;57832;46.038;11.398;2023-02-18T08:55:32;97944.03;;;3.82;100.00
70411;BME280;57832;46.038;11.398;2023-02-18T08:57:58;97932.72;;;3.98;100.00
70411;BME280;57832;46.038;11.398;2023-02-18T09:00:24;97933.97;;;3.64;100.00
70411;BME280;57832;46.038;11.398;2023-02-18T09:02:50;97935.69;;;3.95;100.00
70411;BME280;57832;46.038;11.398;2023-02-18T09:05:16;97933.72;;;3.97;100.00
70411;BME280;57832;46.038;11.398;2023-02-18T09:07:41;97933.38;;;4.00;100.00
70411;BME280;57832;46.038;11.398;2023-02-18T09:10:08;97924.16;;;4.13;100.00
70411;BME280;57832;46.038;11.398;2023-02-18T09:12:34;97926.34;;;3.86;100.00
70411;BME280;57832;46.038;11.398;2023-02-18T09:14:59;97932.56;;;4.00;100.00
70411;BME280;57832;46.038;11.398;2023-02-18T09:17:26;97928.97;;;4.01;100.00
70411;BME280;57832;46.038;11.398;2023-02-18T09:19:52;97934.03;;;4.17;100.00
70411;BME280;57832;46.038;11.398;2023-02-18T09:22:18;97928.38;;;4.14;100.00
70411;BME280;57832;46.038;11.398;2023-02-18T09:24:44;97924.28;;;4.19;100.00
70411;BME280;57832;46.038;11.398;2023-02-18T09:27:09;97925.66;;;4.60;100.00
70411;BME280;57832;46.038;11.398;2023-02-18T09:29:38;97929.56;;;4.26;100.00
70411;BME280;57832;46.038;11.398;2023-02-18T09:32:04;97932.63;;;4.45;100.00
70411;BME280;57832;46.038;11.398;2023-02-18T09:34:30;97912.91;;;7.57;100.00
70411;BME280;57832;46.038;11.398;2023-02-18T09:36:55;97902.69;;;6.94;100.00
70411;BME280;57832;46.038;11.398;2023-02-18T09:39:21;97903.88;;;7.60;100.00
70411;BME280;57832;46.038;11.398;2023-02-18T09:42:09;97892.03;;;8.11;100.00
70411;BME280;57832;46.038;11.398;2023-02-18T09:44:38;97887.88;;;8.82;100.00
70411;BME280;57832;46.038;11.398;2023-02-18T09:49:51;97885.25;;;10.35;100.00
70411;BME280;57832;46.038;11.398;2023-02-18T09:52:21;97881.09;;;11.01;100.00
70411;BME280;57832;46.038;11.398;2023-02-18T09:54:49;97878.50;;;11.44;100.00
70411;BME280;57832;46.038;11.398;2023-02-18T09:59:56;97877.63;;;13.67;100.00
70411;BME280;57832;46.038;11.398;2023-02-18T10:02:23;97878.09;;;16.13;100.00
70411;BME280;57832;46.038;11.398;2023-02-18T10:04:50;97874.38;;;15.76;100.00
70411;BME280;57832;46.038;11.398;2023-02-18T10:07:25;97866.66;;;14.65;100.00
70411;BME280;57832;46.038;11.398;2023-02-18T10:09:53;97866.25;;;13.03;100.00
70411;BME280;57832;46.038;11.398;2023-02-18T10:12:22;97857.09;;;12.53;100.00
70411;BME280;57832;46.038;11.398;2023-02-18T10:14:53;97856.06;;;11.71;100.00
70411;BME280;57832;46.038;11.398;2023-02-18T10:17:22;97852.50;;;11.66;100.00
70411;BME280;57832;46.038;11.398;2023-02-18T10:19:50;97853.63;;;11.58;100.00
70411;BME280;57832;46.038;11.398;2023-02-18T10:22:17;97849.44;;;11.81;100.00
70411;BME280;57832;46.038;11.398;2023-02-18T10:24:44;97845.34;;;12.32;100.00
70411;BME280;57832;46.038;11.398;2023-02-18T10:27:17;97842.16;;;12.71;100.00
70411;BME280;57832;46.038;11.398;2023-02-18T10:29:45;97836.66;;;13.13;100.00
70411;BME280;57832;46.038;11.398;2023-02-18T10:32:23;97839.69;;;14.63;100.00
70411;BME280;57832;46.038;11.398;2023-02-18T10:35:40;97834.56;;;14.57;100.00
70411;BME280;57832;46.038;11.398;2023-02-18T10:43:50;97832.66;;;12.70;100.00
70411;BME280;57832;46.038;11.398;2023-02-18T10:46:38;97828.25;;;12.59;100.00
70411;BME280;57832;46.038;11.398;2023-02-18T10:49:24;97826.53;;;12.93;100.00
70411;BME280;57832;46.038;11.398;2023-02-18T10:51:57;97823.78;;;13.46;100.00
70411;BME280;57832;46.038;11.398;2023-02-18T10:54:24;97824.91;;;13.04;100.00
70411;BME280;57832;46.038;11.398;2023-02-18T10:56:52;97820.41;;;13.04;100.00
70411;BME280;57832;46.038;11.398;2023-02-18T10:59:18;97808.53;;;14.43;100.00
70411;BME280;57832;46.038;11.398;2023-02-18T11:01:45;97817.13;;;15.60;100.00
70411;BME280;57832;46.038;11.398;2023-02-18T11:04:19;97806.09;;;15.35;100.00
70411;BME280;57832;46.038;11.398;2023-02-18T11:06:50;97797.59;;;15.01;100.00
70411;BME280;57832;46.038;11.398;2023-02-18T11:12:18;97791.25;;;13.74;100.00
70411;BME280;57832;46.038;11.398;2023-02-18T11:14:47;97783.31;;;13.06;100.00
70411;BME280;57832;46.038;11.398;2023-02-18T11:17:18;97776.22;;;13.07;100.00
70411;BME280;57832;46.038;11.398;2023-02-18T11:19:55;97778.44;;;13.44;100.00
70411;BME280;57832;46.038;11.398;2023-02-18T11:22:29;97774.00;;;13.83;100.00
70411;BME280;57832;46.038;11.398;2023-02-18T11:25:00;97767.22;;;14.10;100.00
70411;BME280;57832;46.038;11.398;2023-02-18T11:27:31;97763.72;;;13.65;100.00
70411;BME280;57832;46.038;11.398;2023-02-18T11:30:13;97760.78;;;13.44;100.00
70411;BME280;57832;46.038;11.398;2023-02-18T11:32:42;97755.91;;;13.36;100.00
70411;BME280;57832;46.038;11.398;2023-02-18T11:35:19;97757.66;;;12.84;100.00
70411;BME280;57832;46.038;11.398;2023-02-18T11:37:45;97751.41;;;13.02;100.00
70411;BME280;57832;46.038;11.398;2023-02-18T11:40:29;97742.44;;;12.58;100.00
70411;BME280;57832;46.038;11.398;2023-02-18T11:43:05;97731.25;;;12.96;100.00
70411;BME280;57832;46.038;11.398;2023-02-18T11:45:32;97737.09;;;12.98;100.00
70411;BME280;57832;46.038;11.398;2023-02-18T11:48:01;97726.09;;;13.01;100.00
70411;BME280;57832;46.038;11.398;2023-02-18T11:50:31;97725.81;;;13.49;100.00
70411;BME280;57832;46.038;11.398;2023-02-18T11:52:57;97725.94;;;13.08;100.00
70411;BME280;57832;46.038;11.398;2023-02-18T11:55:26;97708.94;;;13.33;100.00
70411;BME280;57832;46.038;11.398;2023-02-18T11:57:57;97711.59;;;13.33;100.00
70411;BME280;57832;46.038;11.398;2023-02-18T12:02:58;97701.63;;;13.74;100.00
70411;BME280;57832;46.038;11.398;2023-02-18T12:05:27;97696.72;;;14.27;100.00
70411;BME280;57832;46.038;11.398;2023-02-18T12:08:09;97699.75;;;15.23;100.00
70411;BME280;57832;46.038;11.398;2023-02-18T12:11:11;97689.66;;;16.11;100.00
70411;BME280;57832;46.038;11.398;2023-02-18T12:13:52;97684.94;;;15.70;100.00
70411;BME280;57832;46.038;11.398;2023-02-18T12:19:15;97684.13;;;14.84;100.00
70411;BME280;57832;46.038;11.398;2023-02-18T12:21:55;97681.66;;;15.47;100.00
70411;BME280;57832;46.038;11.398;2023-02-18T12:24:41;97678.56;;;15.61;100.00
70411;BME280;57832;46.038;11.398;2023-02-18T12:27:26;97675.31;;;15.05;100.00
70411;BME280;57832;46.038;11.398;2023-02-18T12:33:18;97666.19;;;15.66;100.00
70411;BME280;57832;46.038;11.398;2023-02-18T12:36:09;97661.19;;;15.27;100.00
70411;BME280;57832;46.038;11.398;2023-02-18T12:38:52;97657.41;;;15.13;100.00
70411;BME280;57832;46.038;11.398;2023-02-18T12:42:18;97650.59;;;15.27;100.00
70411;BME280;57832;46.038;11.398;2023-02-18T12:44:36;97654.44;;;14.71;100.00
70411;BME280;57832;46.038;11.398;2023-02-18T12:47:29;97654.31;;;14.61;100.00
70411;BME280;57832;46.038;11.398;2023-02-18T12:58:34;97628.69;;;14.62;100.00
70411;BME280;57832;46.038;11.398;2023-02-18T13:01:26;97631.06;;;14.31;100.00
70411;BME280;57832;46.038;11.398;2023-02-18T13:07:13;97621.69;;;13.46;100.00
70411;BME280;57832;46.038;11.398;2023-02-18T13:15:25;97605.22;;;12.83;100.00
70411;BME280;57832;46.038;11.398;2023-02-18T13:17:57;97607.75;;;13.12;100.00
70411;BME280;57832;46.038;11.398;2023-02-18T13:20:38;97604.09;;;13.35;100.00
70411;BME280;57832;46.038;11.398;2023-02-18T13:23:05;97592.66;;;13.07;100.00
70411;BME280;57832;46.038;11.398;2023-02-18T13:25:36;97587.19;;;13.31;100.00
70411;BME280;57832;46.038;11.398;2023-02-18T13:28:31;97590.22;;;13.62;100.00
70411;BME280;57832;46.038;11.398;2023-02-18T13:31:27;97588.50;;;14.22;100.00
70411;BME280;57832;46.038;11.398;2023-02-18T13:37:02;97576.91;;;14.23;100.00
70411;BME280;57832;46.038;11.398;2023-02-18T13:39:31;97571.53;;;14.13;100.00
70411;BME280;57832;46.038;11.398;2023-02-18T13:42:22;97571.53;;;14.13;100.00
70411;BME280;57832;46.038;11.398;2023-02-18T13:50:30;97558.78;;;13.55;100.00
70411;BME280;57832;46.038;11.398;2023-02-18T13:53:13;97560.69;;;13.37;100.00
70411;BME280;57832;46.038;11.398;2023-02-18T13:55:59;97555.31;;;13.10;100.00
70411;BME280;57832;46.038;11.398;2023-02-18T13:58:43;97557.25;;;12.98;100.00
70411;BME280;57832;46.038;11.398;2023-02-18T14:01:13;97555.28;;;12.54;100.00
70411;BME280;57832;46.038;11.398;2023-02-18T14:06:18;97545.94;;;12.29;100.00
70411;BME280;57832;46.038;11.398;2023-02-18T14:08:45;97547.72;;;12.24;100.00
70411;BME280;57832;46.038;11.398;2023-02-18T14:13:46;97544.16;;;12.18;100.00
70411;BME280;57832;46.038;11.398;2023-02-18T14:16:13;97539.69;;;12.01;100.00
70411;BME280;57832;46.038;11.398;2023-02-18T14:33:41;97530.06;;;12.07;100.00
70411;BME280;57832;46.038;11.398;2023-02-18T14:36:56;97538.59;;;12.14;100.00
70411;BME280;57832;46.038;11.398;2023-02-18T14:50:36;97524.50;;;12.20;100.00
70411;BME280;57832;46.038;11.398;2023-02-18T14:53:07;97526.19;;;12.27;100.00
70411;BME280;57832;46.038;11.398;2023-02-18T14:55:40;97522.75;;;12.09;100.00